sensor_id;sensor_type;location;lat;lon;timestamp;pressure;altitude;pressure_sealevel;temperature;humidity
76847;BME280;65813;49.546;8.644;2023-06-22T03:46:54;100571.25;;;20.10;88.27
76847;BME280;65813;49.546;8.644;2023-06-22T03:50:54;100566.84;;;19.85;88.97
76847;BME280;65813;49.546;8.644;2023-06-22T03:54:55;100564.13;;;19.77;89.57
76847;BME280;65813;49.546;8.644;2023-06-22T03:58:55;100569.38;;;19.79;89.20
76847;BME280;65813;49.546;8.644;2023-06-22T04:02:56;100566.84;;;20.01;87.16
76847;BME280;65813;49.546;8.644;2023-06-22T04:06:57;100563.75;;;20.69;83.41
76847;BME280;65813;49.546;8.644;2023-06-22T04:10:57;100559.59;;;21.05;82.61
76847;BME280;65813;49.546;8.644;2023-06-22T04:14:57;100558.00;;;21.27;81.05
76847;BME280;65813;49.546;8.644;2023-06-22T04:18:58;100543.88;;;21.32;81.22
76847;BME280;65813;49.546;8.644;2023-06-22T04:22:58;100550.38;;;21.23;81.46
76847;BME280;65813;49.546;8.644;2023-06-22T04:26:58;100545.50;;;21.10;81.37
76847;BME280;65813;49.546;8.644;2023-06-22T04:31:02;100546.97;;;21.29;80.67
76847;BME280;65813;49.546;8.644;2023-06-22T04:35:03;100542.69;;;20.95;82.05
76847;BME280;65813;49.546;8.644;2023-06-22T04:39:08;100543.88;;;20.93;81.43
76847;BME280;65813;49.546;8.644;2023-06-22T04:43:09;100542.19;;;21.31;80.39
76847;BME280;65813;49.546;8.644;2023-06-22T04:47:12;100539.28;;;21.40;80.08
76847;BME280;65813;49.546;8.644;2023-06-22T04:51:12;100549.84;;;21.58;79.56
76847;BME280;65813;49.546;8.644;2023-06-22T04:55:13;100548.75;;;21.67;79.43
76847;BME280;65813;49.546;8.644;2023-06-22T04:59:18;100547.31;;;21.79;78.59
76847;BME280;65813;49.546;8.644;2023-06-22T05:03:18;100533.56;;;21.81;78.23
76847;BME280;65813;49.546;8.644;2023-06-22T05:07:19;100528.53;;;21.78;78.26
76847;BME280;65813;49.546;8.644;2023-06-22T05:11:19;100513.47;;;21.75;77.94
76847;BME280;65813;49.546;8.644;2023-06-22T05:15:19;100505.59;;;21.80;79.12
76847;BME280;65813;49.546;8.644;2023-06-22T05:19:20;100513.22;;;21.85;78.92
76847;BME280;65813;49.546;8.644;2023-06-22T05:23:20;100497.78;;;21.85;77.92
76847;BME280;65813;49.546;8.644;2023-06-22T05:27:20;100497.25;;;21.67;79.77
76847;BME280;65813;49.546;8.644;2023-06-22T05:31:21;100515.69;;;21.72;78.81
76847;BME280;65813;49.546;8.644;2023-06-22T05:35:21;100512.13;;;21.71;80.46
76847;BME280;65813;49.546;8.644;2023-06-22T05:39:22;100500.53;;;21.77;80.74
76847;BME280;65813;49.546;8.644;2023-06-22T05:43:22;100494.38;;;21.83;79.55
76847;BME280;65813;49.546;8.644;2023-06-22T05:47:22;100484.59;;;21.82;80.02
76847;BME280;65813;49.546;8.644;2023-06-22T05:51:23;100481.63;;;21.92;78.04
76847;BME280;65813;49.546;8.644;2023-06-22T05:55:23;100495.84;;;21.94;77.20
76847;BME280;65813;49.546;8.644;2023-06-22T05:59:23;100492.88;;;22.03;76.76
76847;BME280;65813;49.546;8.644;2023-06-22T06:03:24;100496.38;;;22.12;77.36
76847;BME280;65813;49.546;8.644;2023-06-22T06:07:24;100496.84;;;22.15;76.38
76847;BME280;65813;49.546;8.644;2023-06-22T06:11:25;100480.19;;;22.19;76.23
76847;BME280;65813;49.546;8.644;2023-06-22T06:15:26;100487.31;;;22.20;75.11
76847;BME280;65813;49.546;8.644;2023-06-22T06:19:26;100462.50;;;22.23;75.38
76847;BME280;65813;49.546;8.644;2023-06-22T06:23:26;100485.91;;;22.24;75.18
76847;BME280;65813;49.546;8.644;2023-06-22T06:27:27;100500.78;;;22.28;73.88
76847;BME280;65813;49.546;8.644;2023-06-22T06:31:29;100490.88;;;22.35;74.67
76847;BME280;65813;49.546;8.644;2023-06-22T06:35:30;100470.75;;;22.44;73.93
76847;BME280;65813;49.546;8.644;2023-06-22T06:39:30;100475.06;;;22.53;75.67
76847;BME280;65813;49.546;8.644;2023-06-22T06:43:31;100468.78;;;22.52;74.14
76847;BME280;65813;49.546;8.644;2023-06-22T06:47:31;100467.41;;;22.71;72.68
76847;BME280;65813;49.546;8.644;2023-06-22T06:51:31;100477.53;;;22.77;73.01
76847;BME280;65813;49.546;8.644;2023-06-22T06:55:32;100474.03;;;22.83;72.30
76847;BME280;65813;49.546;8.644;2023-06-22T06:59:35;100469.06;;;22.87;71.68
76847;BME280;65813;49.546;8.644;2023-06-22T07:03:35;100465.97;;;22.90;71.94
76847;BME280;65813;49.546;8.644;2023-06-22T07:07:36;100469.06;;;23.01;72.39
76847;BME280;65813;49.546;8.644;2023-06-22T07:11:36;100460.34;;;23.06;70.84
76847;BME280;65813;49.546;8.644;2023-06-22T07:15:37;100460.72;;;23.60;67.45
76847;BME280;65813;49.546;8.644;2023-06-22T07:19:37;100438.91;;;24.30;63.03
76847;BME280;65813;49.546;8.644;2023-06-22T07:23:38;100432.34;;;24.59;62.83
76847;BME280;65813;49.546;8.644;2023-06-22T07:27:43;100431.16;;;24.68;61.92
76847;BME280;65813;49.546;8.644;2023-06-22T07:31:44;100428.13;;;24.91;59.93
76847;BME280;65813;49.546;8.644;2023-06-22T07:35:45;100427.31;;;25.03;58.74
76847;BME280;65813;49.546;8.644;2023-06-22T07:39:45;100428.69;;;24.39;64.52
76847;BME280;65813;49.546;8.644;2023-06-22T07:43:45;100428.09;;;24.84;60.62
76847;BME280;65813;49.546;8.644;2023-06-22T07:47:46;100441.59;;;24.58;62.67
76847;BME280;65813;49.546;8.644;2023-06-22T07:51:46;100443.44;;;24.51;63.79
76847;BME280;65813;49.546;8.644;2023-06-22T07:55:46;100443.78;;;24.41;63.76
76847;BME280;65813;49.546;8.644;2023-06-22T07:59:47;100450.09;;;24.14;63.92
76847;BME280;65813;49.546;8.644;2023-06-22T08:03:50;100446.06;;;24.10;63.66
76847;BME280;65813;49.546;8.644;2023-06-22T08:07:50;100454.88;;;24.12;63.57
76847;BME280;65813;49.546;8.644;2023-06-22T08:11:51;100438.56;;;24.40;61.99
76847;BME280;65813;49.546;8.644;2023-06-22T08:15:51;100425.38;;;24.84;60.20
76847;BME280;65813;49.546;8.644;2023-06-22T08:19:51;100417.28;;;24.63;60.38
76847;BME280;65813;49.546;8.644;2023-06-22T08:23:52;100417.34;;;24.76;62.70
76847;BME280;65813;49.546;8.644;2023-06-22T08:27:52;100428.84;;;25.19;60.39
76847;BME280;65813;49.546;8.644;2023-06-22T08:31:52;100421.72;;;25.38;58.67
76847;BME280;65813;49.546;8.644;2023-06-22T08:35:53;100416.16;;;25.92;57.41
76847;BME280;65813;49.546;8.644;2023-06-22T08:39:53;100410.00;;;26.36;54.34
76847;BME280;65813;49.546;8.644;2023-06-22T08:43:53;100399.88;;;26.49;53.65
76847;BME280;65813;49.546;8.644;2023-06-22T08:47:54;100407.38;;;26.67;52.84
76847;BME280;65813;49.546;8.644;2023-06-22T08:51:54;100409.31;;;27.04;56.26
76847;BME280;65813;49.546;8.644;2023-06-22T08:55:57;100402.09;;;27.17;51.42
76847;BME280;65813;49.546;8.644;2023-06-22T08:59:57;100395.09;;;26.89;54.50
76847;BME280;65813;49.546;8.644;2023-06-22T09:04:00;100396.44;;;27.43;51.99
76847;BME280;65813;49.546;8.644;2023-06-22T09:08:01;100402.44;;;26.95;53.81
76847;BME280;65813;49.546;8.644;2023-06-22T09:12:01;100398.41;;;26.98;56.11
76847;BME280;65813;49.546;8.644;2023-06-22T09:16:01;100396.34;;;26.36;56.50
76847;BME280;65813;49.546;8.644;2023-06-22T09:20:02;100399.09;;;26.23;57.33
76847;BME280;65813;49.546;8.644;2023-06-22T09:24:05;100406.41;;;26.99;56.77
76847;BME280;65813;49.546;8.644;2023-06-22T09:28:06;100382.34;;;27.71;50.37
76847;BME280;65813;49.546;8.644;2023-06-22T09:32:07;100372.94;;;28.28;46.96
76847;BME280;65813;49.546;8.644;2023-06-22T09:36:07;100365.97;;;28.50;45.98
76847;BME280;65813;49.546;8.644;2023-06-22T09:40:08;100353.75;;;28.64;49.11
76847;BME280;65813;49.546;8.644;2023-06-22T09:44:10;100349.81;;;28.78;46.59
76847;BME280;65813;49.546;8.644;2023-06-22T09:48:10;100334.94;;;28.97;46.55
76847;BME280;65813;49.546;8.644;2023-06-22T09:52:11;100320.75;;;29.30;46.34
76847;BME280;65813;49.546;8.644;2023-06-22T09:56:11;100308.25;;;29.46;45.12
76847;BME280;65813;49.546;8.644;2023-06-22T10:00:16;100302.16;;;29.67;44.93
76847;BME280;65813;49.546;8.644;2023-06-22T10:04:17;100308.47;;;29.44;47.04
76847;BME280;65813;49.546;8.644;2023-06-22T10:08:17;100275.25;;;29.23;47.74
76847;BME280;65813;49.546;8.644;2023-06-22T10:12:17;100276.81;;;29.65;45.33
76847;BME280;65813;49.546;8.644;2023-06-22T10:16:18;100272.44;;;29.87;44.55
76847;BME280;65813;49.546;8.644;2023-06-22T10:20:18;100290.88;;;30.27;43.42
76847;BME280;65813;49.546;8.644;2023-06-22T10:24:18;100283.41;;;29.99;44.87
76847;BME280;65813;49.546;8.644;2023-06-22T10:28:19;100278.28;;;29.91;45.00
76847;BME280;65813;49.546;8.644;2023-06-22T10:32:19;100270.75;;;29.86;44.96
76847;BME280;65813;49.546;8.644;2023-06-22T10:36:20;100255.59;;;29.84;44.71
76847;BME280;65813;49.546;8.644;2023-06-22T10:40:20;100259.75;;;29.86;44.73
76847;BME280;65813;49.546;8.644;2023-06-22T10:44:21;100252.97;;;29.54;44.63
76847;BME280;65813;49.546;8.644;2023-06-22T10:48:21;100227.19;;;29.43;46.06
76847;BME280;65813;49.546;8.644;2023-06-22T10:52:21;100229.81;;;29.50;45.82
76847;BME280;65813;49.546;8.644;2023-06-22T10:56:23;100232.63;;;29.90;44.68
76847;BME280;65813;49.546;8.644;2023-06-22T11:00:23;100234.31;;;30.31;44.92
76847;BME280;65813;49.546;8.644;2023-06-22T11:04:24;100233.66;;;30.52;43.59
76847;BME280;65813;49.546;8.644;2023-06-22T11:08:25;100229.59;;;30.54;42.80
76847;BME280;65813;49.546;8.644;2023-06-22T11:12:25;100224.69;;;30.73;43.33
76847;BME280;65813;49.546;8.644;2023-06-22T11:16:25;100221.19;;;30.61;44.56
76847;BME280;65813;49.546;8.644;2023-06-22T11:20:26;100220.81;;;30.41;45.60
76847;BME280;65813;49.546;8.644;2023-06-22T11:24:26;100218.13;;;30.46;45.16
76847;BME280;65813;49.546;8.644;2023-06-22T11:28:27;100218.59;;;30.54;44.45
76847;BME280;65813;49.546;8.644;2023-06-22T11:32:27;100196.31;;;30.56;44.20
76847;BME280;65813;49.546;8.644;2023-06-22T11:36:29;100198.69;;;30.64;45.17
76847;BME280;65813;49.546;8.644;2023-06-22T11:40:29;100200.25;;;30.77;44.24
76847;BME280;65813;49.546;8.644;2023-06-22T11:44:30;100193.75;;;30.83;42.86
76847;BME280;65813;49.546;8.644;2023-06-22T11:48:30;100192.69;;;30.67;44.40
76847;BME280;65813;49.546;8.644;2023-06-22T11:52:30;100200.56;;;30.47;45.19
76847;BME280;65813;49.546;8.644;2023-06-22T11:56:33;100205.53;;;30.22;46.55
76847;BME280;65813;49.546;8.644;2023-06-22T12:00:33;100200.13;;;29.98;46.34
76847;BME280;65813;49.546;8.644;2023-06-22T12:04:33;100202.28;;;29.96;46.95
76847;BME280;65813;49.546;8.644;2023-06-22T12:08:34;100191.41;;;30.01;47.41
76847;BME280;65813;49.546;8.644;2023-06-22T12:12:34;100180.72;;;29.53;48.29
76847;BME280;65813;49.546;8.644;2023-06-22T12:16:34;100185.81;;;29.73;46.83
76847;BME280;65813;49.546;8.644;2023-06-22T12:20:35;100186.19;;;29.88;46.98
76847;BME280;65813;49.546;8.644;2023-06-22T12:24:35;100184.72;;;29.97;47.14
76847;BME280;65813;49.546;8.644;2023-06-22T12:28:35;100181.88;;;29.69;47.71
76847;BME280;65813;49.546;8.644;2023-06-22T12:32:36;100179.81;;;29.99;46.55
76847;BME280;65813;49.546;8.644;2023-06-22T12:36:36;100185.75;;;29.56;46.98
76847;BME280;65813;49.546;8.644;2023-06-22T12:40:36;100192.44;;;30.40;44.97
76847;BME280;65813;49.546;8.644;2023-06-22T12:44:40;100188.69;;;30.75;42.35
76847;BME280;65813;49.546;8.644;2023-06-22T12:48:41;100183.34;;;30.68;41.83
76847;BME280;65813;49.546;8.644;2023-06-22T12:52:42;100192.41;;;30.69;43.95
76847;BME280;65813;49.546;8.644;2023-06-22T12:56:43;100191.00;;;30.83;42.39
76847;BME280;65813;49.546;8.644;2023-06-22T13:00:45;100201.50;;;30.86;41.32
76847;BME280;65813;49.546;8.644;2023-06-22T13:04:45;100192.06;;;30.65;42.54
76847;BME280;65813;49.546;8.644;2023-06-22T13:08:46;100199.63;;;30.41;43.49
76847;BME280;65813;49.546;8.644;2023-06-22T13:12:46;100187.72;;;30.52;42.18
76847;BME280;65813;49.546;8.644;2023-06-22T13:16:46;100189.59;;;30.35;43.10
76847;BME280;65813;49.546;8.644;2023-06-22T13:20:47;100184.13;;;30.52;43.00
76847;BME280;65813;49.546;8.644;2023-06-22T13:24:47;100186.34;;;30.83;43.18
76847;BME280;65813;49.546;8.644;2023-06-22T13:28:47;100184.88;;;30.92;42.63
76847;BME280;65813;49.546;8.644;2023-06-22T13:32:48;100165.81;;;31.41;41.65
76847;BME280;65813;49.546;8.644;2023-06-22T13:36:48;100162.56;;;31.66;41.85
76847;BME280;65813;49.546;8.644;2023-06-22T13:40:49;100163.88;;;31.80;41.96
76847;BME280;65813;49.546;8.644;2023-06-22T13:44:49;100153.34;;;31.55;42.62
76847;BME280;65813;49.546;8.644;2023-06-22T13:48:50;100135.28;;;31.64;42.55
76847;BME280;65813;49.546;8.644;2023-06-22T13:52:50;100135.06;;;31.49;41.81
76847;BME280;65813;49.546;8.644;2023-06-22T13:56:51;100120.81;;;31.52;41.27
76847;BME280;65813;49.546;8.644;2023-06-22T14:00:51;100120.13;;;31.23;41.91
76847;BME280;65813;49.546;8.644;2023-06-22T14:04:52;100111.56;;;31.03;42.47
76847;BME280;65813;49.546;8.644;2023-06-22T14:08:52;100102.63;;;30.96;43.28
76847;BME280;65813;49.546;8.644;2023-06-22T14:12:52;100103.66;;;30.56;42.54
76847;BME280;65813;49.546;8.644;2023-06-22T14:16:53;100090.88;;;30.34;42.78
76847;BME280;65813;49.546;8.644;2023-06-22T14:20:53;100085.66;;;30.21;43.62
76847;BME280;65813;49.546;8.644;2023-06-22T14:24:54;100087.38;;;30.10;44.09
76847;BME280;65813;49.546;8.644;2023-06-22T14:28:56;100085.72;;;29.92;44.07
76847;BME280;65813;49.546;8.644;2023-06-22T14:32:56;100095.16;;;29.85;44.67
76847;BME280;65813;49.546;8.644;2023-06-22T14:36:57;100092.63;;;29.83;45.05
76847;BME280;65813;49.546;8.644;2023-06-22T14:40:57;100112.72;;;29.84;45.39
76847;BME280;65813;49.546;8.644;2023-06-22T14:44:57;100092.28;;;29.80;46.26
76847;BME280;65813;49.546;8.644;2023-06-22T14:48:58;100082.13;;;29.80;46.21
76847;BME280;65813;49.546;8.644;2023-06-22T14:52:58;100065.44;;;29.70;46.82
76847;BME280;65813;49.546;8.644;2023-06-22T14:56:58;100060.09;;;29.64;47.57
76847;BME280;65813;49.546;8.644;2023-06-22T15:01:00;100068.00;;;29.60;45.76
76847;BME280;65813;49.546;8.644;2023-06-22T15:05:00;100054.41;;;29.53;45.41
76847;BME280;65813;49.546;8.644;2023-06-22T15:09:01;100037.75;;;29.43;46.17
76847;BME280;65813;49.546;8.644;2023-06-22T15:13:01;100023.00;;;29.61;46.72
76847;BME280;65813;49.546;8.644;2023-06-22T15:17:01;100009.66;;;29.53;46.32
76847;BME280;65813;49.546;8.644;2023-06-22T15:21:02;100002.25;;;29.53;46.74
76847;BME280;65813;49.546;8.644;2023-06-22T15:25:03;100023.00;;;29.61;47.29
76847;BME280;65813;49.546;8.644;2023-06-22T15:29:04;100024.94;;;29.77;46.73
76847;BME280;65813;49.546;8.644;2023-06-22T15:33:04;100027.41;;;29.90;46.37
76847;BME280;65813;49.546;8.644;2023-06-22T15:37:05;100034.75;;;30.01;46.42
76847;BME280;65813;49.546;8.644;2023-06-22T15:41:05;100031.31;;;29.94;46.73
76847;BME280;65813;49.546;8.644;2023-06-22T15:45:06;100036.03;;;29.82;47.00
76847;BME280;65813;49.546;8.644;2023-06-22T15:49:07;100024.69;;;29.50;47.89
76847;BME280;65813;49.546;8.644;2023-06-22T15:53:08;100034.50;;;29.46;46.51
76847;BME280;65813;49.546;8.644;2023-06-22T15:57:08;100031.91;;;29.40;47.44
76847;BME280;65813;49.546;8.644;2023-06-22T16:01:12;100035.03;;;29.32;48.08
76847;BME280;65813;49.546;8.644;2023-06-22T16:05:13;100032.75;;;29.29;47.90
76847;BME280;65813;49.546;8.644;2023-06-22T16:09:13;100023.41;;;29.41;47.68
76847;BME280;65813;49.546;8.644;2023-06-22T16:13:14;100012.84;;;29.62;48.08
76847;BME280;65813;49.546;8.644;2023-06-22T16:17:15;100005.47;;;29.50;48.23
76847;BME280;65813;49.546;8.644;2023-06-22T16:21:16;100017.09;;;29.41;48.71
76847;BME280;65813;49.546;8.644;2023-06-22T16:25:16;100043.16;;;29.27;48.42
76847;BME280;65813;49.546;8.644;2023-06-22T16:29:16;100050.53;;;29.15;48.61
76847;BME280;65813;49.546;8.644;2023-06-22T16:33:17;100039.81;;;29.13;47.72
76847;BME280;65813;49.546;8.644;2023-06-22T16:37:17;100027.19;;;29.00;47.48
76847;BME280;65813;49.546;8.644;2023-06-22T16:41:18;100027.66;;;28.97;47.80
76847;BME280;65813;49.546;8.644;2023-06-22T16:45:19;100033.41;;;28.96;47.91
76847;BME280;65813;49.546;8.644;2023-06-22T16:49:20;100032.22;;;28.92;48.06
76847;BME280;65813;49.546;8.644;2023-06-22T16:53:20;100036.38;;;28.83;48.69
76847;BME280;65813;49.546;8.644;2023-06-22T16:57:22;100040.72;;;28.79;48.21
76847;BME280;65813;49.546;8.644;2023-06-22T17:01:24;100040.78;;;28.72;48.43
76847;BME280;65813;49.546;8.644;2023-06-22T17:05:26;100049.16;;;28.77;49.37
76847;BME280;65813;49.546;8.644;2023-06-22T17:09:27;100086.34;;;28.62;47.58
76847;BME280;65813;49.546;8.644;2023-06-22T17:13:27;100076.22;;;28.21;46.21
76847;BME280;65813;49.546;8.644;2023-06-22T17:17:28;100081.97;;;28.19;45.50
76847;BME280;65813;49.546;8.644;2023-06-22T17:21:30;100073.22;;;28.10;46.59
76847;BME280;65813;49.546;8.644;2023-06-22T17:25:33;100065.28;;;28.21;47.54
76847;BME280;65813;49.546;8.644;2023-06-22T17:29:34;100068.06;;;28.02;46.70
76847;BME280;65813;49.546;8.644;2023-06-22T17:33:34;100069.44;;;28.12;47.47
76847;BME280;65813;49.546;8.644;2023-06-22T17:37:52;100057.66;;;27.93;47.54
76847;BME280;65813;49.546;8.644;2023-06-22T17:41:53;100056.50;;;28.00;47.92
76847;BME280;65813;49.546;8.644;2023-06-22T17:45:57;100061.00;;;28.13;49.19
76847;BME280;65813;49.546;8.644;2023-06-22T17:50:05;100061.94;;;28.19;49.39
76847;BME280;65813;49.546;8.644;2023-06-22T17:54:06;100051.34;;;28.22;48.94
76847;BME280;65813;49.546;8.644;2023-06-22T17:58:07;100054.19;;;28.16;47.68
76847;BME280;65813;49.546;8.644;2023-06-22T18:02:10;100043.81;;;28.18;47.17
76847;BME280;65813;49.546;8.644;2023-06-22T18:06:12;100045.03;;;28.22;46.64
76847;BME280;65813;49.546;8.644;2023-06-22T18:10:16;100060.63;;;28.09;46.59
76847;BME280;65813;49.546;8.644;2023-06-22T18:14:17;100062.97;;;28.06;46.24
76847;BME280;65813;49.546;8.644;2023-06-22T18:18:19;100058.31;;;28.06;47.21
76847;BME280;65813;49.546;8.644;2023-06-22T18:22:21;100059.72;;;27.97;45.00
76847;BME280;65813;49.546;8.644;2023-06-22T18:26:23;100055.97;;;27.80;43.12
76847;BME280;65813;49.546;8.644;2023-06-22T18:30:24;100061.59;;;27.85;43.14
76847;BME280;65813;49.546;8.644;2023-06-22T18:34:25;100049.75;;;27.73;43.23
76847;BME280;65813;49.546;8.644;2023-06-22T18:38:28;100050.78;;;27.72;45.01
76847;BME280;65813;49.546;8.644;2023-06-22T18:42:29;100066.19;;;27.55;43.67
76847;BME280;65813;49.546;8.644;2023-06-22T18:46:37;100056.19;;;27.49;43.86
76847;BME280;65813;49.546;8.644;2023-06-22T18:50:44;100055.59;;;27.47;44.22
76847;BME280;65813;49.546;8.644;2023-06-22T18:54:48;100059.28;;;27.34;44.67
76847;BME280;65813;49.546;8.644;2023-06-22T18:58:56;100055.56;;;27.29;45.21
76847;BME280;65813;49.546;8.644;2023-06-22T19:02:59;100058.38;;;27.22;45.70
76847;BME280;65813;49.546;8.644;2023-06-22T19:07:00;100040.81;;;27.11;45.87
76847;BME280;65813;49.546;8.644;2023-06-22T19:11:13;100050.53;;;27.07;46.32
76847;BME280;65813;49.546;8.644;2023-06-22T19:15:13;100055.19;;;27.07;46.58
76847;BME280;65813;49.546;8.644;2023-06-22T19:19:15;100047.06;;;27.00;46.41
76847;BME280;65813;49.546;8.644;2023-06-22T19:23:31;100059.38;;;26.91;47.49
76847;BME280;65813;49.546;8.644;2023-06-22T19:27:34;100075.69;;;26.73;48.65
76847;BME280;65813;49.546;8.644;2023-06-22T19:31:35;100090.94;;;26.62;48.96
76847;BME280;65813;49.546;8.644;2023-06-22T19:35:36;100102.56;;;26.58;49.39
76847;BME280;65813;49.546;8.644;2023-06-22T19:39:36;100108.94;;;26.45;50.23
76847;BME280;65813;49.546;8.644;2023-06-22T19:43:37;100133.53;;;26.45;50.46
76847;BME280;65813;49.546;8.644;2023-06-22T19:47:38;100130.47;;;26.35;48.83
76847;BME280;65813;49.546;8.644;2023-06-22T19:51:39;100117.31;;;26.26;50.09
76847;BME280;65813;49.546;8.644;2023-06-22T19:55:44;100114.56;;;26.26;50.22
76847;BME280;65813;49.546;8.644;2023-06-22T19:59:44;100115.13;;;26.03;50.12
76847;BME280;65813;49.546;8.644;2023-06-22T20:03:46;100125.84;;;25.98;49.46
76847;BME280;65813;49.546;8.644;2023-06-22T20:07:46;100141.66;;;25.83;48.91
76847;BME280;65813;49.546;8.644;2023-06-22T20:11:46;100160.66;;;25.65;49.52
76847;BME280;65813;49.546;8.644;2023-06-22T20:15:47;100173.66;;;25.62;49.83
76847;BME280;65813;49.546;8.644;2023-06-22T20:19:52;100184.19;;;25.46;50.51
76847;BME280;65813;49.546;8.644;2023-06-22T20:23:53;100201.81;;;25.56;50.67
76847;BME280;65813;49.546;8.644;2023-06-22T20:27:55;100213.59;;;25.44;51.29
76847;BME280;65813;49.546;8.644;2023-06-22T20:32:06;100239.59;;;25.46;51.27
76847;BME280;65813;49.546;8.644;2023-06-22T20:36:08;100237.50;;;25.29;52.09
76847;BME280;65813;49.546;8.644;2023-06-22T20:40:08;100242.34;;;25.13;52.79
76847;BME280;65813;49.546;8.644;2023-06-22T20:44:09;100255.34;;;24.85;53.25
76847;BME280;65813;49.546;8.644;2023-06-22T20:48:10;100262.22;;;24.68;52.99
76847;BME280;65813;49.546;8.644;2023-06-22T20:52:10;100275.56;;;24.43;54.10
76847;BME280;65813;49.546;8.644;2023-06-22T20:56:10;100293.47;;;24.18;55.22
76847;BME280;65813;49.546;8.644;2023-06-22T21:00:11;100300.63;;;24.26;54.76
76847;BME280;65813;49.546;8.644;2023-06-22T21:04:12;100316.53;;;24.22;54.54
76847;BME280;65813;49.546;8.644;2023-06-22T21:08:13;100346.97;;;24.04;55.31
76847;BME280;65813;49.546;8.644;2023-06-22T21:12:13;100373.31;;;23.97;55.77
76847;BME280;65813;49.546;8.644;2023-06-22T21:20:37;100382.78;;;23.74;56.13
76847;BME280;65813;49.546;8.644;2023-06-22T21:24:37;100375.16;;;23.62;56.45
76847;BME280;65813;49.546;8.644;2023-06-22T21:28:38;100369.59;;;23.49;56.67
76847;BME280;65813;49.546;8.644;2023-06-22T21:32:39;100378.31;;;23.66;56.18
76847;BME280;65813;49.546;8.644;2023-06-22T21:36:40;100367.78;;;23.56;56.33
76847;BME280;65813;49.546;8.644;2023-06-22T21:40:40;100361.50;;;23.35;57.78
76847;BME280;65813;49.546;8.644;2023-06-22T21:44:40;100376.00;;;23.63;56.53
76847;BME280;65813;49.546;8.644;2023-06-22T21:48:41;100386.41;;;23.38;56.71
76847;BME280;65813;49.546;8.644;2023-06-22T21:56:41;100388.94;;;23.40;56.56
76847;BME280;65813;49.546;8.644;2023-06-22T22:00:42;100395.41;;;23.39;56.73
76847;BME280;65813;49.546;8.644;2023-06-22T22:04:43;100397.22;;;23.32;56.66
76847;BME280;65813;49.546;8.644;2023-06-22T22:08:43;100393.00;;;23.44;56.42
76847;BME280;65813;49.546;8.644;2023-06-22T22:12:43;100396.06;;;23.20;56.89
76847;BME280;65813;49.546;8.644;2023-06-22T22:16:44;100397.50;;;23.15;57.42
76847;BME280;65813;49.546;8.644;2023-06-22T22:20:44;100400.56;;;23.27;57.11
76847;BME280;65813;49.546;8.644;2023-06-22T22:24:45;100403.44;;;23.04;57.84
76847;BME280;65813;49.546;8.644;2023-06-22T22:28:45;100407.47;;;23.08;57.80
76847;BME280;65813;49.546;8.644;2023-06-22T22:32:45;100410.31;;;23.22;58.50
76847;BME280;65813;49.546;8.644;2023-06-22T22:36:46;100405.78;;;23.29;57.35
76847;BME280;65813;49.546;8.644;2023-06-22T22:40:46;100405.38;;;23.32;57.52
76847;BME280;65813;49.546;8.644;2023-06-22T22:44:47;100402.47;;;23.12;58.15
76847;BME280;65813;49.546;8.644;2023-06-22T22:48:47;100404.81;;;23.15;58.09
76847;BME280;65813;49.546;8.644;2023-06-22T22:52:48;100405.38;;;23.10;58.88
76847;BME280;65813;49.546;8.644;2023-06-22T22:56:48;100399.16;;;22.95;58.97
76847;BME280;65813;49.546;8.644;2023-06-22T23:00:48;100392.69;;;23.17;58.94
76847;BME280;65813;49.546;8.644;2023-06-22T23:04:59;100398.72;;;22.92;59.07
76847;BME280;65813;49.546;8.644;2023-06-22T23:08:59;100412.38;;;22.98;58.70
76847;BME280;65813;49.546;8.644;2023-06-22T23:13:00;100417.88;;;23.05;58.54
76847;BME280;65813;49.546;8.644;2023-06-22T23:17:00;100427.69;;;22.85;58.07
76847;BME280;65813;49.546;8.644;2023-06-22T23:21:00;100437.38;;;22.94;58.73
76847;BME280;65813;49.546;8.644;2023-06-22T23:25:01;100444.72;;;22.64;58.71
76847;BME280;65813;49.546;8.644;2023-06-22T23:29:01;100462.78;;;22.42;60.02
76847;BME280;65813;49.546;8.644;2023-06-22T23:33:01;100465.97;;;22.31;59.40
76847;BME280;65813;49.546;8.644;2023-06-22T23:37:02;100470.72;;;22.14;60.42
76847;BME280;65813;49.546;8.644;2023-06-22T23:41:03;100473.94;;;22.33;60.21
76847;BME280;65813;49.546;8.644;2023-06-22T23:45:04;100472.25;;;22.61;58.42
76847;BME280;65813;49.546;8.644;2023-06-22T23:49:04;100468.22;;;22.28;59.69
76847;BME280;65813;49.546;8.644;2023-06-22T23:53:05;100490.16;;;22.41;59.30
76847;BME280;65813;49.546;8.644;2023-06-22T23:57:06;100500.78;;;22.28;58.89
